sensor_id;sensor_type;location;lat;lon;timestamp;temperature;humidity
76567;DHT22;65428;53.194;6.132;2023-04-15T00:00:15;5.90;99.90
76567;DHT22;65428;53.194;6.132;2023-04-15T00:02:41;5.70;99.90
76567;DHT22;65428;53.194;6.132;2023-04-15T00:05:07;5.70;99.90
76567;DHT22;65428;53.194;6.132;2023-04-15T00:07:33;5.60;99.90
76567;DHT22;65428;53.194;6.132;2023-04-15T00:09:58;5.60;99.90
76567;DHT22;65428;53.194;6.132;2023-04-15T00:12:25;5.70;99.90
76567;DHT22;65428;53.194;6.132;2023-04-15T00:14:51;5.50;99.90
76567;DHT22;65428;53.194;6.132;2023-04-15T00:17:17;5.50;99.90
76567;DHT22;65428;53.194;6.132;2023-04-15T00:19:42;5.50;99.90
76567;DHT22;65428;53.194;6.132;2023-04-15T00:22:10;5.40;99.90
76567;DHT22;65428;53.194;6.132;2023-04-15T00:24:37;5.50;99.90
76567;DHT22;65428;53.194;6.132;2023-04-15T00:27:02;5.30;99.90
76567;DHT22;65428;53.194;6.132;2023-04-15T00:29:29;5.30;99.90
76567;DHT22;65428;53.194;6.132;2023-04-15T00:31:55;5.40;99.90
76567;DHT22;65428;53.194;6.132;2023-04-15T00:34:22;5.30;99.90
76567;DHT22;65428;53.194;6.132;2023-04-15T00:36:48;5.20;99.90
76567;DHT22;65428;53.194;6.132;2023-04-15T00:39:14;5.20;99.90
76567;DHT22;65428;53.194;6.132;2023-04-15T00:41:41;5.20;99.90
76567;DHT22;65428;53.194;6.132;2023-04-15T00:44:07;5.10;99.90
76567;DHT22;65428;53.194;6.132;2023-04-15T00:46:37;5.00;99.90
76567;DHT22;65428;53.194;6.132;2023-04-15T00:49:06;5.10;99.90
76567;DHT22;65428;53.194;6.132;2023-04-15T00:51:33;5.00;99.90
76567;DHT22;65428;53.194;6.132;2023-04-15T00:54:04;5.30;99.90
76567;DHT22;65428;53.194;6.132;2023-04-15T00:56:36;4.90;99.90
76567;DHT22;65428;53.194;6.132;2023-04-15T00:59:04;4.90;99.90
76567;DHT22;65428;53.194;6.132;2023-04-15T01:01:32;4.90;99.90
76567;DHT22;65428;53.194;6.132;2023-04-15T01:03:58;5.50;99.90
76567;DHT22;65428;53.194;6.132;2023-04-15T01:06:24;5.10;99.90
76567;DHT22;65428;53.194;6.132;2023-04-15T01:08:52;4.90;99.90
76567;DHT22;65428;53.194;6.132;2023-04-15T01:11:18;4.90;99.90
76567;DHT22;65428;53.194;6.132;2023-04-15T01:13:46;4.80;99.90
76567;DHT22;65428;53.194;6.132;2023-04-15T01:16:12;4.80;99.90
76567;DHT22;65428;53.194;6.132;2023-04-15T01:18:38;4.80;99.90
76567;DHT22;65428;53.194;6.132;2023-04-15T01:21:05;4.70;99.90
76567;DHT22;65428;53.194;6.132;2023-04-15T01:23:32;4.70;99.90
76567;DHT22;65428;53.194;6.132;2023-04-15T01:25:58;4.60;99.90
76567;DHT22;65428;53.194;6.132;2023-04-15T01:28:24;4.70;99.90
76567;DHT22;65428;53.194;6.132;2023-04-15T01:31:07;4.70;99.90
76567;DHT22;65428;53.194;6.132;2023-04-15T01:33:33;4.60;99.90
76567;DHT22;65428;53.194;6.132;2023-04-15T01:35:59;5.10;99.90
76567;DHT22;65428;53.194;6.132;2023-04-15T01:38:26;4.60;99.90
76567;DHT22;65428;53.194;6.132;2023-04-15T01:40:52;4.70;99.90
76567;DHT22;65428;53.194;6.132;2023-04-15T01:43:18;4.70;99.90
76567;DHT22;65428;53.194;6.132;2023-04-15T01:45:44;4.60;99.90
76567;DHT22;65428;53.194;6.132;2023-04-15T01:48:10;4.60;99.90
76567;DHT22;65428;53.194;6.132;2023-04-15T01:50:36;4.70;99.90
76567;DHT22;65428;53.194;6.132;2023-04-15T01:53:03;4.60;99.90
76567;DHT22;65428;53.194;6.132;2023-04-15T01:55:28;4.50;99.90
76567;DHT22;65428;53.194;6.132;2023-04-15T01:57:55;4.50;99.90
76567;DHT22;65428;53.194;6.132;2023-04-15T02:00:21;4.50;99.90
76567;DHT22;65428;53.194;6.132;2023-04-15T02:02:47;4.60;99.90
76567;DHT22;65428;53.194;6.132;2023-04-15T02:05:14;4.40;99.90
76567;DHT22;65428;53.194;6.132;2023-04-15T02:07:41;4.40;99.90
76567;DHT22;65428;53.194;6.132;2023-04-15T02:10:08;4.40;99.90
76567;DHT22;65428;53.194;6.132;2023-04-15T02:12:34;4.30;99.90
76567;DHT22;65428;53.194;6.132;2023-04-15T02:15:00;4.60;99.90
76567;DHT22;65428;53.194;6.132;2023-04-15T02:17:26;4.30;99.90
76567;DHT22;65428;53.194;6.132;2023-04-15T02:19:52;4.40;99.90
76567;DHT22;65428;53.194;6.132;2023-04-15T02:22:20;4.40;99.90
76567;DHT22;65428;53.194;6.132;2023-04-15T02:24:46;4.30;99.90
76567;DHT22;65428;53.194;6.132;2023-04-15T02:27:15;4.30;99.90
76567;DHT22;65428;53.194;6.132;2023-04-15T02:29:43;4.30;99.90
76567;DHT22;65428;53.194;6.132;2023-04-15T02:32:08;4.30;99.90
76567;DHT22;65428;53.194;6.132;2023-04-15T02:34:35;4.30;99.90
76567;DHT22;65428;53.194;6.132;2023-04-15T02:37:02;4.00;99.90
76567;DHT22;65428;53.194;6.132;2023-04-15T02:39:28;4.20;99.90
76567;DHT22;65428;53.194;6.132;2023-04-15T02:41:54;4.30;99.90
76567;DHT22;65428;53.194;6.132;2023-04-15T02:44:23;4.40;99.90
76567;DHT22;65428;53.194;6.132;2023-04-15T02:46:49;4.00;99.90
76567;DHT22;65428;53.194;6.132;2023-04-15T02:49:17;4.20;99.90
76567;DHT22;65428;53.194;6.132;2023-04-15T02:51:43;4.00;99.90
76567;DHT22;65428;53.194;6.132;2023-04-15T02:54:12;4.00;99.90
76567;DHT22;65428;53.194;6.132;2023-04-15T02:56:37;3.90;99.90
76567;DHT22;65428;53.194;6.132;2023-04-15T02:59:03;3.90;99.90
76567;DHT22;65428;53.194;6.132;2023-04-15T03:01:29;4.50;99.90
76567;DHT22;65428;53.194;6.132;2023-04-15T03:03:54;4.60;99.90
76567;DHT22;65428;53.194;6.132;2023-04-15T03:06:20;4.40;99.90
76567;DHT22;65428;53.194;6.132;2023-04-15T03:08:46;3.70;99.90
76567;DHT22;65428;53.194;6.132;2023-04-15T03:11:13;3.90;99.90
76567;DHT22;65428;53.194;6.132;2023-04-15T03:13:39;3.80;99.90
76567;DHT22;65428;53.194;6.132;2023-04-15T03:16:06;4.00;99.90
76567;DHT22;65428;53.194;6.132;2023-04-15T03:18:32;3.80;99.90
76567;DHT22;65428;53.194;6.132;2023-04-15T03:20:57;3.70;99.90
76567;DHT22;65428;53.194;6.132;2023-04-15T03:23:24;3.80;99.90
76567;DHT22;65428;53.194;6.132;2023-04-15T03:25:50;3.70;99.90
76567;DHT22;65428;53.194;6.132;2023-04-15T03:28:15;4.00;99.90
76567;DHT22;65428;53.194;6.132;2023-04-15T03:30:41;3.70;99.90
76567;DHT22;65428;53.194;6.132;2023-04-15T03:33:07;3.70;99.90
76567;DHT22;65428;53.194;6.132;2023-04-15T03:35:33;3.90;99.90
76567;DHT22;65428;53.194;6.132;2023-04-15T03:37:59;3.40;99.90
76567;DHT22;65428;53.194;6.132;2023-04-15T03:40:25;3.60;99.90
76567;DHT22;65428;53.194;6.132;2023-04-15T03:42:51;3.60;99.90
76567;DHT22;65428;53.194;6.132;2023-04-15T03:45:17;3.80;99.90
76567;DHT22;65428;53.194;6.132;2023-04-15T03:47:42;3.60;99.90
76567;DHT22;65428;53.194;6.132;2023-04-15T03:50:08;3.60;99.90
76567;DHT22;65428;53.194;6.132;2023-04-15T03:52:34;3.50;99.90
76567;DHT22;65428;53.194;6.132;2023-04-15T03:55:00;3.80;99.90
76567;DHT22;65428;53.194;6.132;2023-04-15T03:57:26;3.60;99.90
76567;DHT22;65428;53.194;6.132;2023-04-15T03:59:51;3.50;99.90
76567;DHT22;65428;53.194;6.132;2023-04-15T04:02:17;3.60;99.90
76567;DHT22;65428;53.194;6.132;2023-04-15T04:04:43;3.60;99.90
76567;DHT22;65428;53.194;6.132;2023-04-15T04:07:14;3.50;99.90
76567;DHT22;65428;53.194;6.132;2023-04-15T04:09:40;3.40;99.90
76567;DHT22;65428;53.194;6.132;2023-04-15T04:12:06;3.50;99.90
76567;DHT22;65428;53.194;6.132;2023-04-15T04:14:32;3.40;99.90
76567;DHT22;65428;53.194;6.132;2023-04-15T04:16:57;3.20;99.90
76567;DHT22;65428;53.194;6.132;2023-04-15T04:19:23;3.30;99.90
76567;DHT22;65428;53.194;6.132;2023-04-15T04:21:49;3.40;99.90
76567;DHT22;65428;53.194;6.132;2023-04-15T04:24:15;3.30;99.90
76567;DHT22;65428;53.194;6.132;2023-04-15T04:26:40;3.30;99.90
76567;DHT22;65428;53.194;6.132;2023-04-15T04:29:06;3.30;99.90
76567;DHT22;65428;53.194;6.132;2023-04-15T04:31:32;3.30;99.90
76567;DHT22;65428;53.194;6.132;2023-04-15T04:33:58;3.00;99.90
76567;DHT22;65428;53.194;6.132;2023-04-15T04:36:23;3.20;99.90
76567;DHT22;65428;53.194;6.132;2023-04-15T04:38:50;3.10;99.90
76567;DHT22;65428;53.194;6.132;2023-04-15T04:41:17;3.30;99.90
76567;DHT22;65428;53.194;6.132;2023-04-15T04:43:42;3.10;99.90
76567;DHT22;65428;53.194;6.132;2023-04-15T04:46:08;3.20;99.90
76567;DHT22;65428;53.194;6.132;2023-04-15T04:48:34;3.50;99.90
76567;DHT22;65428;53.194;6.132;2023-04-15T04:51:01;3.10;99.90
76567;DHT22;65428;53.194;6.132;2023-04-15T04:53:26;2.70;99.90
76567;DHT22;65428;53.194;6.132;2023-04-15T04:55:52;2.90;99.90
76567;DHT22;65428;53.194;6.132;2023-04-15T04:58:18;2.90;99.90
76567;DHT22;65428;53.194;6.132;2023-04-15T05:00:44;2.90;99.90
76567;DHT22;65428;53.194;6.132;2023-04-15T05:03:09;3.00;99.90
76567;DHT22;65428;53.194;6.132;2023-04-15T05:05:35;2.90;99.90
76567;DHT22;65428;53.194;6.132;2023-04-15T05:08:04;3.00;99.90
76567;DHT22;65428;53.194;6.132;2023-04-15T05:10:30;2.90;99.90
76567;DHT22;65428;53.194;6.132;2023-04-15T05:12:56;3.10;99.90
76567;DHT22;65428;53.194;6.132;2023-04-15T05:15:22;3.10;99.90
76567;DHT22;65428;53.194;6.132;2023-04-15T05:17:48;3.30;99.90
76567;DHT22;65428;53.194;6.132;2023-04-15T05:20:14;3.00;99.90
76567;DHT22;65428;53.194;6.132;2023-04-15T05:22:40;3.30;99.90
76567;DHT22;65428;53.194;6.132;2023-04-15T05:25:05;3.60;99.90
76567;DHT22;65428;53.194;6.132;2023-04-15T05:27:31;3.40;99.90
76567;DHT22;65428;53.194;6.132;2023-04-15T05:29:57;3.40;99.90
76567;DHT22;65428;53.194;6.132;2023-04-15T05:32:23;3.90;99.90
76567;DHT22;65428;53.194;6.132;2023-04-15T05:34:48;3.90;99.90
76567;DHT22;65428;53.194;6.132;2023-04-15T05:37:14;4.00;99.90
76567;DHT22;65428;53.194;6.132;2023-04-15T05:39:40;4.20;99.90
76567;DHT22;65428;53.194;6.132;2023-04-15T05:42:07;4.30;99.90
76567;DHT22;65428;53.194;6.132;2023-04-15T05:44:33;4.70;99.90
76567;DHT22;65428;53.194;6.132;2023-04-15T05:46:59;5.30;99.90
76567;DHT22;65428;53.194;6.132;2023-04-15T05:49:25;4.90;99.90
76567;DHT22;65428;53.194;6.132;2023-04-15T05:51:50;5.10;99.90
76567;DHT22;65428;53.194;6.132;2023-04-15T05:54:16;5.10;99.90
76567;DHT22;65428;53.194;6.132;2023-04-15T05:56:43;5.20;99.90
76567;DHT22;65428;53.194;6.132;2023-04-15T05:59:08;5.60;99.90
76567;DHT22;65428;53.194;6.132;2023-04-15T06:01:34;5.40;99.90
76567;DHT22;65428;53.194;6.132;2023-04-15T06:04:00;5.50;99.90
76567;DHT22;65428;53.194;6.132;2023-04-15T06:06:41;5.60;99.90
76567;DHT22;65428;53.194;6.132;2023-04-15T06:09:07;5.80;99.90
76567;DHT22;65428;53.194;6.132;2023-04-15T06:11:33;6.10;99.90
76567;DHT22;65428;53.194;6.132;2023-04-15T06:13:59;6.10;99.90
76567;DHT22;65428;53.194;6.132;2023-04-15T06:16:24;6.50;99.90
76567;DHT22;65428;53.194;6.132;2023-04-15T06:18:50;6.30;99.90
76567;DHT22;65428;53.194;6.132;2023-04-15T06:21:16;6.40;99.90
76567;DHT22;65428;53.194;6.132;2023-04-15T06:23:42;6.40;99.90
76567;DHT22;65428;53.194;6.132;2023-04-15T06:26:07;6.60;99.90
76567;DHT22;65428;53.194;6.132;2023-04-15T06:28:33;6.50;99.90
76567;DHT22;65428;53.194;6.132;2023-04-15T06:30:59;6.90;99.90
76567;DHT22;65428;53.194;6.132;2023-04-15T06:33:25;7.00;99.90
76567;DHT22;65428;53.194;6.132;2023-04-15T06:35:51;7.00;99.90
76567;DHT22;65428;53.194;6.132;2023-04-15T06:38:17;6.90;99.90
76567;DHT22;65428;53.194;6.132;2023-04-15T06:40:43;7.00;99.90
76567;DHT22;65428;53.194;6.132;2023-04-15T06:43:09;7.20;99.90
76567;DHT22;65428;53.194;6.132;2023-04-15T06:45:34;7.10;99.90
76567;DHT22;65428;53.194;6.132;2023-04-15T06:48:00;7.50;99.90
76567;DHT22;65428;53.194;6.132;2023-04-15T06:50:26;7.60;99.90
76567;DHT22;65428;53.194;6.132;2023-04-15T06:52:54;7.80;99.90
76567;DHT22;65428;53.194;6.132;2023-04-15T06:55:20;7.70;99.90
76567;DHT22;65428;53.194;6.132;2023-04-15T06:57:46;7.80;99.90
76567;DHT22;65428;53.194;6.132;2023-04-15T07:00:12;8.60;99.90
76567;DHT22;65428;53.194;6.132;2023-04-15T07:02:38;8.20;99.90
76567;DHT22;65428;53.194;6.132;2023-04-15T07:05:05;8.20;99.90
76567;DHT22;65428;53.194;6.132;2023-04-15T07:07:31;8.60;99.90
76567;DHT22;65428;53.194;6.132;2023-04-15T07:09:57;9.60;99.90
76567;DHT22;65428;53.194;6.132;2023-04-15T07:12:22;8.90;99.90
76567;DHT22;65428;53.194;6.132;2023-04-15T07:14:48;9.30;99.90
76567;DHT22;65428;53.194;6.132;2023-04-15T07:17:14;9.40;99.90
76567;DHT22;65428;53.194;6.132;2023-04-15T07:19:40;9.80;99.90
76567;DHT22;65428;53.194;6.132;2023-04-15T07:22:05;9.90;99.90
76567;DHT22;65428;53.194;6.132;2023-04-15T07:24:32;10.70;99.90
76567;DHT22;65428;53.194;6.132;2023-04-15T07:26:58;9.90;99.90
76567;DHT22;65428;53.194;6.132;2023-04-15T07:29:24;9.70;99.90
76567;DHT22;65428;53.194;6.132;2023-04-15T07:31:50;9.70;99.90
76567;DHT22;65428;53.194;6.132;2023-04-15T07:34:17;10.00;99.90
76567;DHT22;65428;53.194;6.132;2023-04-15T07:36:43;10.50;99.90
76567;DHT22;65428;53.194;6.132;2023-04-15T07:39:09;10.20;99.90
76567;DHT22;65428;53.194;6.132;2023-04-15T07:41:34;10.20;99.90
76567;DHT22;65428;53.194;6.132;2023-04-15T07:44:00;10.20;99.90
76567;DHT22;65428;53.194;6.132;2023-04-15T07:46:28;10.10;99.90
76567;DHT22;65428;53.194;6.132;2023-04-15T07:48:54;10.20;99.90
76567;DHT22;65428;53.194;6.132;2023-04-15T07:51:20;10.40;99.90
76567;DHT22;65428;53.194;6.132;2023-04-15T07:53:46;10.40;99.90
76567;DHT22;65428;53.194;6.132;2023-04-15T07:56:13;10.70;99.90
76567;DHT22;65428;53.194;6.132;2023-04-15T07:58:38;10.90;99.90
76567;DHT22;65428;53.194;6.132;2023-04-15T08:01:04;10.80;99.90
76567;DHT22;65428;53.194;6.132;2023-04-15T08:03:30;11.00;99.90
76567;DHT22;65428;53.194;6.132;2023-04-15T08:05:56;11.40;99.90
76567;DHT22;65428;53.194;6.132;2023-04-15T08:08:22;11.40;99.90
76567;DHT22;65428;53.194;6.132;2023-04-15T08:10:48;11.90;99.90
76567;DHT22;65428;53.194;6.132;2023-04-15T08:13:32;11.60;99.90
76567;DHT22;65428;53.194;6.132;2023-04-15T08:16:19;11.90;99.90
76567;DHT22;65428;53.194;6.132;2023-04-15T08:18:47;12.10;99.90
76567;DHT22;65428;53.194;6.132;2023-04-15T08:21:13;12.20;99.90
76567;DHT22;65428;53.194;6.132;2023-04-15T08:23:39;12.40;99.90
76567;DHT22;65428;53.194;6.132;2023-04-15T08:26:05;12.30;99.90
76567;DHT22;65428;53.194;6.132;2023-04-15T08:28:34;12.30;99.90
76567;DHT22;65428;53.194;6.132;2023-04-15T08:31:00;12.60;99.90
76567;DHT22;65428;53.194;6.132;2023-04-15T08:33:26;12.00;99.90
76567;DHT22;65428;53.194;6.132;2023-04-15T08:35:53;12.60;99.90
76567;DHT22;65428;53.194;6.132;2023-04-15T08:38:18;12.10;99.90
76567;DHT22;65428;53.194;6.132;2023-04-15T08:40:45;11.90;99.90
76567;DHT22;65428;53.194;6.132;2023-04-15T08:43:26;11.60;99.90
76567;DHT22;65428;53.194;6.132;2023-04-15T08:46:04;11.40;99.90
76567;DHT22;65428;53.194;6.132;2023-04-15T08:48:35;11.40;99.90
76567;DHT22;65428;53.194;6.132;2023-04-15T08:51:03;11.40;99.90
76567;DHT22;65428;53.194;6.132;2023-04-15T08:53:55;11.60;99.90
76567;DHT22;65428;53.194;6.132;2023-04-15T08:56:24;11.50;99.90
76567;DHT22;65428;53.194;6.132;2023-04-15T08:58:51;11.50;99.90
76567;DHT22;65428;53.194;6.132;2023-04-15T09:01:17;11.60;99.90
76567;DHT22;65428;53.194;6.132;2023-04-15T09:03:48;11.60;99.90
76567;DHT22;65428;53.194;6.132;2023-04-15T09:06:23;11.60;99.90
76567;DHT22;65428;53.194;6.132;2023-04-15T09:08:55;11.60;99.90
76567;DHT22;65428;53.194;6.132;2023-04-15T09:11:21;11.50;99.90
76567;DHT22;65428;53.194;6.132;2023-04-15T09:13:48;11.80;99.90
76567;DHT22;65428;53.194;6.132;2023-04-15T09:16:13;11.40;99.90
76567;DHT22;65428;53.194;6.132;2023-04-15T09:18:40;11.40;99.90
76567;DHT22;65428;53.194;6.132;2023-04-15T09:23:33;11.20;99.90
76567;DHT22;65428;53.194;6.132;2023-04-15T09:26:00;11.40;99.90
76567;DHT22;65428;53.194;6.132;2023-04-15T09:28:27;11.30;99.90
76567;DHT22;65428;53.194;6.132;2023-04-15T09:30:59;11.40;99.90
76567;DHT22;65428;53.194;6.132;2023-04-15T09:33:26;11.40;99.90
76567;DHT22;65428;53.194;6.132;2023-04-15T09:36:03;11.90;99.90
76567;DHT22;65428;53.194;6.132;2023-04-15T09:38:30;11.80;99.90
76567;DHT22;65428;53.194;6.132;2023-04-15T09:40:59;11.90;99.90
76567;DHT22;65428;53.194;6.132;2023-04-15T09:43:38;11.80;99.90
76567;DHT22;65428;53.194;6.132;2023-04-15T09:46:04;12.40;99.90
76567;DHT22;65428;53.194;6.132;2023-04-15T09:48:30;12.30;99.90
76567;DHT22;65428;53.194;6.132;2023-04-15T09:51:00;12.90;99.90
76567;DHT22;65428;53.194;6.132;2023-04-15T09:53:26;13.30;99.90
76567;DHT22;65428;53.194;6.132;2023-04-15T09:55:57;13.30;99.90
76567;DHT22;65428;53.194;6.132;2023-04-15T09:58:24;13.30;99.90
76567;DHT22;65428;53.194;6.132;2023-04-15T10:00:51;13.20;99.90
76567;DHT22;65428;53.194;6.132;2023-04-15T10:03:24;13.10;99.90
76567;DHT22;65428;53.194;6.132;2023-04-15T10:05:52;12.90;99.90
76567;DHT22;65428;53.194;6.132;2023-04-15T10:08:20;13.20;99.90
76567;DHT22;65428;53.194;6.132;2023-04-15T10:10:47;12.60;99.90
76567;DHT22;65428;53.194;6.132;2023-04-15T10:13:16;12.20;99.90
76567;DHT22;65428;53.194;6.132;2023-04-15T10:15:44;12.40;99.90
76567;DHT22;65428;53.194;6.132;2023-04-15T10:18:16;12.00;99.90
76567;DHT22;65428;53.194;6.132;2023-04-15T10:20:43;11.90;99.90
76567;DHT22;65428;53.194;6.132;2023-04-15T10:23:14;11.80;99.90
76567;DHT22;65428;53.194;6.132;2023-04-15T10:25:49;11.90;99.90
76567;DHT22;65428;53.194;6.132;2023-04-15T10:28:19;12.10;99.90
76567;DHT22;65428;53.194;6.132;2023-04-15T10:30:51;12.30;99.90
76567;DHT22;65428;53.194;6.132;2023-04-15T10:33:20;12.40;99.90
76567;DHT22;65428;53.194;6.132;2023-04-15T10:35:48;12.60;99.90
76567;DHT22;65428;53.194;6.132;2023-04-15T10:43:51;12.50;99.90
76567;DHT22;65428;53.194;6.132;2023-04-15T10:46:21;12.40;99.90
76567;DHT22;65428;53.194;6.132;2023-04-15T10:48:52;12.10;99.90
76567;DHT22;65428;53.194;6.132;2023-04-15T10:51:30;11.80;99.90
76567;DHT22;65428;53.194;6.132;2023-04-15T10:53:58;11.60;99.90
76567;DHT22;65428;53.194;6.132;2023-04-15T10:56:24;11.50;99.90
76567;DHT22;65428;53.194;6.132;2023-04-15T10:58:50;11.60;99.90
76567;DHT22;65428;53.194;6.132;2023-04-15T11:01:18;11.90;99.90
76567;DHT22;65428;53.194;6.132;2023-04-15T11:03:45;11.70;99.90
76567;DHT22;65428;53.194;6.132;2023-04-15T11:06:11;11.80;99.90
76567;DHT22;65428;53.194;6.132;2023-04-15T11:08:58;11.80;99.90
76567;DHT22;65428;53.194;6.132;2023-04-15T11:12:05;11.80;99.90
76567;DHT22;65428;53.194;6.132;2023-04-15T11:14:39;11.70;99.90
76567;DHT22;65428;53.194;6.132;2023-04-15T11:17:04;11.70;99.90
76567;DHT22;65428;53.194;6.132;2023-04-15T11:19:37;11.40;99.90
76567;DHT22;65428;53.194;6.132;2023-04-15T11:22:09;11.20;99.90
76567;DHT22;65428;53.194;6.132;2023-04-15T11:24:36;11.30;99.90
76567;DHT22;65428;53.194;6.132;2023-04-15T11:27:01;11.40;99.90
76567;DHT22;65428;53.194;6.132;2023-04-15T11:29:31;11.20;99.90
76567;DHT22;65428;53.194;6.132;2023-04-15T11:32:07;11.00;99.90
76567;DHT22;65428;53.194;6.132;2023-04-15T11:34:33;11.60;99.90
76567;DHT22;65428;53.194;6.132;2023-04-15T11:37:03;11.40;99.90
76567;DHT22;65428;53.194;6.132;2023-04-15T11:39:30;11.40;99.90
76567;DHT22;65428;53.194;6.132;2023-04-15T11:41:55;11.50;99.90
76567;DHT22;65428;53.194;6.132;2023-04-15T11:44:21;11.60;99.90
76567;DHT22;65428;53.194;6.132;2023-04-15T11:46:47;12.00;99.90
76567;DHT22;65428;53.194;6.132;2023-04-15T11:49:28;11.90;99.90
76567;DHT22;65428;53.194;6.132;2023-04-15T11:51:55;11.40;99.90
76567;DHT22;65428;53.194;6.132;2023-04-15T11:54:21;11.80;99.90
76567;DHT22;65428;53.194;6.132;2023-04-15T11:56:50;11.50;99.90
76567;DHT22;65428;53.194;6.132;2023-04-15T11:59:17;11.50;99.90
76567;DHT22;65428;53.194;6.132;2023-04-15T12:01:42;11.70;99.90
76567;DHT22;65428;53.194;6.132;2023-04-15T12:04:16;11.30;99.90
76567;DHT22;65428;53.194;6.132;2023-04-15T12:06:44;10.90;99.90
76567;DHT22;65428;53.194;6.132;2023-04-15T12:11:49;11.00;99.90
76567;DHT22;65428;53.194;6.132;2023-04-15T12:14:25;10.70;99.90
76567;DHT22;65428;53.194;6.132;2023-04-15T12:17:01;10.60;99.90
76567;DHT22;65428;53.194;6.132;2023-04-15T12:22:05;10.70;99.90
76567;DHT22;65428;53.194;6.132;2023-04-15T12:24:32;10.10;99.90
76567;DHT22;65428;53.194;6.132;2023-04-15T12:27:04;10.10;99.90
76567;DHT22;65428;53.194;6.132;2023-04-15T12:29:32;10.10;99.90
76567;DHT22;65428;53.194;6.132;2023-04-15T12:32:11;10.20;99.90
76567;DHT22;65428;53.194;6.132;2023-04-15T12:34:43;10.30;99.90
76567;DHT22;65428;53.194;6.132;2023-04-15T12:37:11;10.40;99.90
76567;DHT22;65428;53.194;6.132;2023-04-15T12:39:42;10.70;99.90
76567;DHT22;65428;53.194;6.132;2023-04-15T12:42:11;10.30;99.90
76567;DHT22;65428;53.194;6.132;2023-04-15T12:44:38;10.40;99.90
76567;DHT22;65428;53.194;6.132;2023-04-15T12:47:04;10.40;99.90
76567;DHT22;65428;53.194;6.132;2023-04-15T12:49:30;10.40;99.90
76567;DHT22;65428;53.194;6.132;2023-04-15T12:51:58;10.60;99.90
76567;DHT22;65428;53.194;6.132;2023-04-15T12:54:28;10.40;99.90
76567;DHT22;65428;53.194;6.132;2023-04-15T12:56:54;10.10;99.90
76567;DHT22;65428;53.194;6.132;2023-04-15T12:59:21;10.20;99.90
76567;DHT22;65428;53.194;6.132;2023-04-15T13:01:49;10.10;99.90
76567;DHT22;65428;53.194;6.132;2023-04-15T13:04:16;10.40;99.90
76567;DHT22;65428;53.194;6.132;2023-04-15T13:06:42;10.40;99.90
76567;DHT22;65428;53.194;6.132;2023-04-15T13:09:08;10.60;99.90
76567;DHT22;65428;53.194;6.132;2023-04-15T13:11:34;10.50;99.90
76567;DHT22;65428;53.194;6.132;2023-04-15T13:14:05;10.60;99.90
76567;DHT22;65428;53.194;6.132;2023-04-15T13:16:32;10.50;99.90
76567;DHT22;65428;53.194;6.132;2023-04-15T13:18:59;10.70;99.90
76567;DHT22;65428;53.194;6.132;2023-04-15T13:21:25;10.40;99.90
76567;DHT22;65428;53.194;6.132;2023-04-15T13:23:51;10.90;99.90
76567;DHT22;65428;53.194;6.132;2023-04-15T13:26:18;10.70;99.90
76567;DHT22;65428;53.194;6.132;2023-04-15T13:28:44;10.30;99.90
76567;DHT22;65428;53.194;6.132;2023-04-15T13:31:10;11.20;99.90
76567;DHT22;65428;53.194;6.132;2023-04-15T13:33:36;10.50;99.90
76567;DHT22;65428;53.194;6.132;2023-04-15T13:36:02;11.00;99.90
76567;DHT22;65428;53.194;6.132;2023-04-15T13:38:28;10.50;99.90
76567;DHT22;65428;53.194;6.132;2023-04-15T13:40:53;10.50;99.90
76567;DHT22;65428;53.194;6.132;2023-04-15T13:43:19;10.70;99.90
76567;DHT22;65428;53.194;6.132;2023-04-15T13:45:46;10.50;99.90
76567;DHT22;65428;53.194;6.132;2023-04-15T13:48:12;10.40;99.90
76567;DHT22;65428;53.194;6.132;2023-04-15T13:50:38;10.30;99.90
76567;DHT22;65428;53.194;6.132;2023-04-15T13:53:03;10.10;99.90
76567;DHT22;65428;53.194;6.132;2023-04-15T13:55:29;10.40;99.90
76567;DHT22;65428;53.194;6.132;2023-04-15T13:57:55;10.00;99.90
76567;DHT22;65428;53.194;6.132;2023-04-15T14:00:21;10.10;99.90
76567;DHT22;65428;53.194;6.132;2023-04-15T14:02:47;10.10;99.90
76567;DHT22;65428;53.194;6.132;2023-04-15T14:05:13;10.10;99.90
76567;DHT22;65428;53.194;6.132;2023-04-15T14:07:39;10.00;99.90
76567;DHT22;65428;53.194;6.132;2023-04-15T14:10:05;9.80;99.90
76567;DHT22;65428;53.194;6.132;2023-04-15T14:12:31;9.60;99.90
76567;DHT22;65428;53.194;6.132;2023-04-15T14:14:57;9.60;99.90
76567;DHT22;65428;53.194;6.132;2023-04-15T14:17:23;10.10;99.90
76567;DHT22;65428;53.194;6.132;2023-04-15T14:19:48;9.80;99.90
76567;DHT22;65428;53.194;6.132;2023-04-15T14:22:14;9.70;99.90
76567;DHT22;65428;53.194;6.132;2023-04-15T14:24:40;9.70;99.90
76567;DHT22;65428;53.194;6.132;2023-04-15T14:27:05;9.80;99.90
76567;DHT22;65428;53.194;6.132;2023-04-15T14:29:33;9.50;99.90
76567;DHT22;65428;53.194;6.132;2023-04-15T14:31:59;9.70;99.90
76567;DHT22;65428;53.194;6.132;2023-04-15T14:34:24;9.70;99.90
76567;DHT22;65428;53.194;6.132;2023-04-15T14:36:51;9.30;99.90
76567;DHT22;65428;53.194;6.132;2023-04-15T14:39:19;10.20;99.90
76567;DHT22;65428;53.194;6.132;2023-04-15T14:41:45;9.70;99.90
76567;DHT22;65428;53.194;6.132;2023-04-15T14:44:11;9.70;99.90
76567;DHT22;65428;53.194;6.132;2023-04-15T14:46:37;9.60;99.90
76567;DHT22;65428;53.194;6.132;2023-04-15T14:49:05;9.70;99.90
76567;DHT22;65428;53.194;6.132;2023-04-15T14:51:31;9.20;99.90
76567;DHT22;65428;53.194;6.132;2023-04-15T14:53:57;9.40;99.90
76567;DHT22;65428;53.194;6.132;2023-04-15T14:56:22;9.80;99.90
76567;DHT22;65428;53.194;6.132;2023-04-15T14:58:48;9.40;99.90
76567;DHT22;65428;53.194;6.132;2023-04-15T15:01:14;9.70;99.90
76567;DHT22;65428;53.194;6.132;2023-04-15T15:03:40;9.30;99.90
76567;DHT22;65428;53.194;6.132;2023-04-15T15:06:06;9.60;99.90
76567;DHT22;65428;53.194;6.132;2023-04-15T15:08:32;9.40;99.90
76567;DHT22;65428;53.194;6.132;2023-04-15T15:10:57;9.40;99.90
76567;DHT22;65428;53.194;6.132;2023-04-15T15:13:23;9.10;99.90
76567;DHT22;65428;53.194;6.132;2023-04-15T15:15:50;9.60;99.90
76567;DHT22;65428;53.194;6.132;2023-04-15T15:18:16;9.10;99.90
76567;DHT22;65428;53.194;6.132;2023-04-15T15:20:43;9.30;99.90
76567;DHT22;65428;53.194;6.132;2023-04-15T15:23:08;9.10;99.90
76567;DHT22;65428;53.194;6.132;2023-04-15T15:25:34;9.10;99.90
76567;DHT22;65428;53.194;6.132;2023-04-15T15:28:00;9.30;99.90
76567;DHT22;65428;53.194;6.132;2023-04-15T15:30:26;9.20;99.90
76567;DHT22;65428;53.194;6.132;2023-04-15T15:32:51;9.30;99.90
76567;DHT22;65428;53.194;6.132;2023-04-15T15:35:17;9.20;99.90
76567;DHT22;65428;53.194;6.132;2023-04-15T15:37:44;8.90;99.90
76567;DHT22;65428;53.194;6.132;2023-04-15T15:40:10;9.10;99.90
76567;DHT22;65428;53.194;6.132;2023-04-15T15:42:36;8.80;99.90
76567;DHT22;65428;53.194;6.132;2023-04-15T15:45:02;9.30;99.90
76567;DHT22;65428;53.194;6.132;2023-04-15T15:47:29;8.90;99.90
76567;DHT22;65428;53.194;6.132;2023-04-15T15:49:54;9.10;99.90
76567;DHT22;65428;53.194;6.132;2023-04-15T15:52:20;9.10;99.90